createdAt,value
2019-02-21T00:00:11.183Z,97431.35
2019-02-21T00:02:41.501Z,97428.33
2019-02-21T00:05:11.975Z,97433.95
2019-02-21T00:07:43.407Z,97435.34
2019-02-21T00:10:13.816Z,97430.44
2019-02-21T00:12:45.674Z,97437.25
2019-02-21T00:15:16.152Z,97434.30
2019-02-21T00:17:46.577Z,97444.98
2019-02-21T00:20:17.065Z,97439.36
2019-02-21T00:22:47.531Z,97442.92
2019-02-21T00:25:18.038Z,97442.86
2019-02-21T00:27:48.428Z,97446.77
2019-02-21T00:30:18.813Z,97448.97
2019-02-21T00:32:49.253Z,97442.45
2019-02-21T00:35:19.680Z,97447.19
2019-02-21T00:37:50.129Z,97452.11
2019-02-21T00:40:20.635Z,97452.34
2019-02-21T00:42:51.031Z,97452.34
2019-02-21T00:45:21.342Z,97455.64
2019-02-21T00:47:51.780Z,97462.41
2019-02-21T00:50:22.255Z,97459.39
2019-02-21T00:52:52.669Z,97457.74
2019-02-21T00:55:23.122Z,97458.56
2019-02-21T00:57:53.498Z,97460.95
2019-02-21T01:00:23.968Z,97457.39
2019-02-21T01:02:54.431Z,97455.14
2019-02-21T01:05:24.945Z,97457.39
2019-02-21T01:07:55.316Z,97452.19
2019-02-21T01:10:25.751Z,97460.70
2019-02-21T01:12:56.342Z,97460.00
2019-02-21T01:15:27.062Z,97460.48
2019-02-21T01:17:57.640Z,97460.61
2019-02-21T01:20:27.936Z,97460.28
2019-02-21T01:22:58.306Z,97458.28
2019-02-21T01:25:28.796Z,97462.80
2019-02-21T01:27:59.147Z,97463.63
2019-02-21T01:30:29.687Z,97466.70
2019-02-21T01:33:00.114Z,97457.52
2019-02-21T01:35:30.420Z,97461.08
2019-02-21T01:38:00.913Z,97452.92
2019-02-21T01:40:31.286Z,97454.22
2019-02-21T01:43:01.698Z,97453.27
2019-02-21T01:45:32.148Z,97447.70
2019-02-21T01:48:02.632Z,97455.52
2019-02-21T01:50:33.146Z,97454.51
2019-02-21T01:53:03.365Z,97461.98
2019-02-21T01:55:33.796Z,97464.48
2019-02-21T01:58:04.228Z,97465.38
2019-02-21T02:00:34.653Z,97464.00
2019-02-21T02:03:05.329Z,97469.46
2019-02-21T02:05:35.819Z,97458.62
2019-02-21T02:08:06.171Z,97460.11
2019-02-21T02:10:36.526Z,97460.05
2019-02-21T02:13:06.834Z,97466.67
2019-02-21T02:15:37.265Z,97463.17
2019-02-21T02:18:07.652Z,97471.59
2019-02-21T02:20:38.090Z,97460.97
2019-02-21T02:23:08.455Z,97459.66
2019-02-21T02:25:38.974Z,97454.27
2019-02-21T02:28:09.430Z,97461.95
2019-02-21T02:30:39.860Z,97457.69
2019-02-21T02:33:10.271Z,97462.48
2019-02-21T02:35:40.709Z,97462.13
2019-02-21T02:38:11.217Z,97463.67
2019-02-21T02:40:41.552Z,97468.88
2019-02-21T02:43:11.818Z,97456.81
2019-02-21T02:45:42.580Z,97462.17
2019-02-21T02:48:13.083Z,97463.13
2019-02-21T02:50:43.538Z,97463.25
2019-02-21T02:53:14.933Z,97462.30
2019-02-21T02:55:45.393Z,97463.00
2019-02-21T02:58:16.009Z,97467.38
2019-02-21T03:00:46.501Z,97463.95
2019-02-21T03:03:17.025Z,97469.23
2019-02-21T03:05:47.489Z,97468.63
2019-02-21T03:08:17.902Z,97474.66
2019-02-21T03:10:48.360Z,97471.78
2019-02-21T03:13:18.810Z,97472.61
2019-02-21T03:15:49.225Z,97466.33
2019-02-21T03:18:19.661Z,97469.48
2019-02-21T03:20:50.019Z,97476.59
2019-02-21T03:23:20.339Z,97466.09
2019-02-21T03:25:50.738Z,97476.59
2019-02-21T03:28:21.199Z,97470.43
2019-02-21T03:30:51.924Z,97468.78
2019-02-21T03:33:22.350Z,97464.45
2019-02-21T03:35:52.872Z,97469.58
2019-02-21T03:38:23.357Z,97471.48
2019-02-21T03:40:53.740Z,97474.05
2019-02-21T03:43:24.124Z,97474.42
2019-02-21T03:45:54.571Z,97475.41
2019-02-21T03:48:25.113Z,97477.86
2019-02-21T03:50:55.629Z,97479.80
2019-02-21T03:53:26.062Z,97484.56
2019-02-21T03:55:56.515Z,97480.55
2019-02-21T03:58:27.455Z,97486.02
2019-02-21T04:00:57.858Z,97480.50
2019-02-21T04:03:28.543Z,97483.14
2019-02-21T04:05:58.820Z,97478.53
2019-02-21T04:08:29.387Z,97486.84
2019-02-21T04:10:59.827Z,97491.48
2019-02-21T04:13:30.222Z,97486.75
2019-02-21T04:16:01.082Z,97486.90
2019-02-21T04:18:31.454Z,97488.23
2019-02-21T04:21:01.773Z,97497.33
2019-02-21T04:23:32.316Z,97488.84
2019-02-21T04:26:03.875Z,97495.84
2019-02-21T04:28:34.188Z,97487.47
2019-02-21T04:31:04.696Z,97490.33
2019-02-21T04:33:35.000Z,97497.42
2019-02-21T04:36:05.418Z,97493.75
2019-02-21T04:38:35.834Z,97500.02
2019-02-21T04:41:06.236Z,97494.94
2019-02-21T04:43:36.646Z,97489.62
2019-02-21T04:46:07.079Z,97494.46
2019-02-21T04:48:37.575Z,97485.63
2019-02-21T04:51:07.900Z,97488.69
2019-02-21T04:53:38.409Z,97491.55
2019-02-21T04:56:08.856Z,97493.69
2019-02-21T04:58:39.215Z,97486.25
2019-02-21T05:01:09.728Z,97496.65
2019-02-21T05:03:40.167Z,97494.69
2019-02-21T05:06:10.762Z,97495.38
2019-02-21T05:08:41.246Z,97501.77
2019-02-21T05:11:11.707Z,97497.42
2019-02-21T05:13:42.081Z,97504.96
2019-02-21T05:16:12.518Z,97507.92
2019-02-21T05:18:42.957Z,97502.73
2019-02-21T05:21:13.402Z,97503.67
2019-02-21T05:23:43.828Z,97509.44
2019-02-21T05:26:17.887Z,97515.94
2019-02-21T05:28:48.310Z,97515.35
2019-02-21T05:31:29.099Z,97508.86
2019-02-21T05:34:09.876Z,97508.50
2019-02-21T05:36:58.043Z,97500.00
2019-02-21T05:39:38.055Z,97506.84
2019-02-21T05:42:33.395Z,97508.26
2019-02-21T05:45:21.651Z,97509.70
2019-02-21T05:48:04.697Z,97511.22
2019-02-21T05:50:41.202Z,97513.59
2019-02-21T05:53:21.204Z,97518.17
2019-02-21T05:56:12.420Z,97513.09
2019-02-21T05:59:01.768Z,97522.18
2019-02-21T06:01:55.739Z,97515.95
2019-02-21T06:04:57.396Z,97516.87
2019-02-21T06:07:42.155Z,97519.70
2019-02-21T06:10:37.558Z,97518.08
2019-02-21T06:13:23.963Z,97524.78
2019-02-21T06:16:09.831Z,97523.23
2019-02-21T06:18:48.650Z,97525.25
2019-02-21T06:21:44.066Z,97532.42
2019-02-21T06:24:33.316Z,97534.80
2019-02-21T06:27:12.654Z,97542.83
2019-02-21T06:30:04.780Z,97550.84
2019-02-21T06:32:35.213Z,97554.52
2019-02-21T06:35:06.542Z,97560.64
2019-02-21T06:37:37.910Z,97563.95
2019-02-21T06:40:08.479Z,97562.66
2019-02-21T06:42:39.313Z,97570.19
2019-02-21T06:45:09.856Z,97568.42
2019-02-21T06:47:40.191Z,97571.16
2019-02-21T06:50:10.639Z,97574.80
2019-02-21T06:52:40.941Z,97572.92
2019-02-21T06:55:11.301Z,97580.09
2019-02-21T06:57:41.632Z,97572.05
2019-02-21T07:00:12.026Z,97572.14
2019-02-21T07:02:42.393Z,97571.61
2019-02-21T07:05:12.870Z,97565.87
2019-02-21T07:07:43.327Z,97576.13
2019-02-21T07:10:13.642Z,97580.45
2019-02-21T07:12:44.122Z,97583.58
2019-02-21T07:15:15.219Z,97584.56
2019-02-21T07:17:49.450Z,97590.00
2019-02-21T07:20:17.904Z,97594.61
2019-02-21T07:22:48.333Z,97596.50
2019-02-21T07:25:38.542Z,97601.79
2019-02-21T07:28:12.489Z,97601.28
2019-02-21T07:30:42.939Z,97590.64
2019-02-21T07:33:13.360Z,97585.44
2019-02-21T07:35:43.688Z,97590.41
2019-02-21T07:38:14.051Z,97585.37
2019-02-21T07:40:44.457Z,97587.81
2019-02-21T07:43:14.932Z,97588.88
2019-02-21T07:45:45.225Z,97588.48
2019-02-21T07:48:15.671Z,97597.05
2019-02-21T07:50:46.044Z,97602.67
2019-02-21T07:53:16.427Z,97602.30
2019-02-21T07:55:46.948Z,97600.66
2019-02-21T07:58:17.315Z,97591.89
2019-02-21T08:00:47.768Z,97592.20
2019-02-21T08:03:29.501Z,97594.44
2019-02-21T08:05:50.295Z,97592.82
2019-02-21T08:08:21.065Z,97596.41
2019-02-21T08:10:51.578Z,97597.66
2019-02-21T08:13:21.930Z,97595.80
2019-02-21T08:15:52.375Z,97598.04
2019-02-21T08:18:22.713Z,97598.83
2019-02-21T08:20:53.036Z,97595.13
2019-02-21T08:23:23.480Z,97600.84
2019-02-21T08:25:53.886Z,97603.11
2019-02-21T08:28:24.328Z,97611.16
2019-02-21T08:30:54.820Z,97601.54
2019-02-21T08:33:58.433Z,97594.73
2019-02-21T08:36:23.480Z,97593.05
2019-02-21T08:38:53.898Z,97606.09
2019-02-21T08:41:25.745Z,97607.79
2019-02-21T08:43:57.400Z,97602.69
2019-02-21T08:46:28.038Z,97602.11
2019-02-21T08:48:58.544Z,97604.44
2019-02-21T08:51:29.015Z,97604.14
2019-02-21T08:53:59.459Z,97612.77
2019-02-21T08:56:30.098Z,97605.66
2019-02-21T08:59:00.624Z,97610.03
2019-02-21T09:01:31.083Z,97615.26
2019-02-21T09:04:10.101Z,97617.53
2019-02-21T09:06:33.760Z,97616.55
2019-02-21T09:09:04.835Z,97615.75
2019-02-21T09:11:35.300Z,97615.50
2019-02-21T09:14:05.693Z,97622.23
2019-02-21T09:16:36.054Z,97623.59
2019-02-21T09:19:06.446Z,97622.53
2019-02-21T09:21:36.867Z,97621.19
2019-02-21T09:24:07.632Z,97622.55
2019-02-21T09:26:38.144Z,97631.70
2019-02-21T09:29:08.556Z,97635.16
2019-02-21T09:31:39.032Z,97633.80
2019-02-21T09:34:09.379Z,97624.91
2019-02-21T09:36:39.844Z,97626.02
2019-02-21T09:39:10.159Z,97628.98
2019-02-21T09:41:40.675Z,97621.14
2019-02-21T09:44:11.021Z,97625.09
2019-02-21T09:46:41.406Z,97626.12
2019-02-21T09:49:11.872Z,97627.11
2019-02-21T09:51:42.165Z,97625.60
2019-02-21T09:54:12.657Z,97628.33
2019-02-21T09:56:52.397Z,97623.41
2019-02-21T09:59:15.308Z,97618.48
2019-02-21T10:01:45.706Z,97622.55
2019-02-21T10:04:16.160Z,97616.80
2019-02-21T10:06:47.113Z,97619.56
2019-02-21T10:09:17.599Z,97616.61
2019-02-21T10:11:47.914Z,97607.76
2019-02-21T10:14:18.369Z,97614.34
2019-02-21T10:16:49.654Z,97610.50
2019-02-21T10:19:20.132Z,97610.04
2019-02-21T10:21:50.567Z,97614.37
2019-02-21T10:24:20.905Z,97615.33
2019-02-21T10:26:51.365Z,97604.34
2019-02-21T10:29:21.737Z,97606.04
2019-02-21T10:31:52.040Z,97606.95
2019-02-21T10:34:22.469Z,97611.89
2019-02-21T10:36:52.851Z,97617.88
2019-02-21T10:39:23.372Z,97613.48
2019-02-21T10:41:53.786Z,97613.86
2019-02-21T10:44:24.296Z,97606.28
2019-02-21T10:46:54.663Z,97600.95
2019-02-21T10:49:25.162Z,97606.97
2019-02-21T10:51:55.599Z,97604.45
2019-02-21T10:54:25.912Z,97596.05
2019-02-21T10:56:56.359Z,97604.61
2019-02-21T10:59:27.544Z,97594.88
2019-02-21T11:01:57.863Z,97592.78
2019-02-21T11:04:28.248Z,97593.49
2019-02-21T11:06:58.683Z,97586.05
2019-02-21T11:09:29.133Z,97584.02
2019-02-21T11:11:59.557Z,97581.95
2019-02-21T11:14:29.898Z,97583.66
2019-02-21T11:17:00.804Z,97580.31
2019-02-21T11:19:32.044Z,97574.48
2019-02-21T11:22:03.169Z,97583.75
2019-02-21T11:24:34.797Z,97580.53
2019-02-21T11:27:06.375Z,97573.86
2019-02-21T11:29:38.409Z,97575.55
2019-02-21T11:32:09.752Z,97567.41
2019-02-21T11:34:40.439Z,97563.34
2019-02-21T11:37:12.298Z,97565.92
2019-02-21T11:39:42.820Z,97569.80
2019-02-21T11:42:13.541Z,97564.83
2019-02-21T11:44:44.643Z,97563.52
2019-02-21T11:47:15.654Z,97565.16
2019-02-21T11:49:46.967Z,97563.15
2019-02-21T11:52:17.440Z,97566.02
2019-02-21T11:54:47.766Z,97562.66
2019-02-21T11:57:18.749Z,97564.63
2019-02-21T11:59:49.644Z,97556.06
2019-02-21T12:02:20.056Z,97564.98
2019-02-21T12:04:50.493Z,97565.34
2019-02-21T12:07:20.854Z,97559.74
2019-02-21T12:09:51.274Z,97549.09
2019-02-21T12:12:21.667Z,97553.55
2019-02-21T12:14:51.970Z,97544.88
2019-02-21T12:17:22.406Z,97555.81
2019-02-21T12:19:52.868Z,97545.52
2019-02-21T12:22:23.307Z,97547.52
2019-02-21T12:24:53.782Z,97552.09
2019-02-21T12:27:24.212Z,97549.89
2019-02-21T12:29:54.687Z,97551.46
2019-02-21T12:32:25.114Z,97549.67
2019-02-21T12:34:55.667Z,97543.81
2019-02-21T12:37:26.114Z,97550.30
2019-02-21T12:39:56.796Z,97549.95
2019-02-21T12:42:27.286Z,97549.38
2019-02-21T12:44:57.762Z,97543.88
2019-02-21T12:47:28.120Z,97542.64
2019-02-21T12:49:58.577Z,97547.13
2019-02-21T12:52:28.993Z,97543.98
2019-02-21T12:54:59.405Z,97545.09
2019-02-21T12:57:29.894Z,97539.20
2019-02-21T13:00:00.231Z,97534.00
2019-02-21T13:02:30.691Z,97530.55
2019-02-21T13:05:01.111Z,97521.36
2019-02-21T13:07:31.509Z,97525.15
2019-02-21T13:10:02.057Z,97518.61
2019-02-21T13:12:32.470Z,97513.73
2019-02-21T13:15:02.802Z,97514.48
2019-02-21T13:17:33.136Z,97517.52
2019-02-21T13:20:03.555Z,97512.78
2019-02-21T13:22:33.925Z,97511.28
2019-02-21T13:25:04.381Z,97505.59
2019-02-21T13:27:34.771Z,97507.94
2019-02-21T13:30:05.950Z,97503.87
2019-02-21T13:32:36.380Z,97500.11
2019-02-21T13:35:07.540Z,97500.72
2019-02-21T13:37:38.070Z,97501.19
2019-02-21T13:40:09.876Z,97495.72
2019-02-21T13:42:40.287Z,97500.81
2019-02-21T13:45:11.818Z,97498.63
2019-02-21T13:47:42.257Z,97494.30
2019-02-21T13:50:15.430Z,97488.44
2019-02-21T13:52:45.902Z,97486.91
2019-02-21T13:55:16.468Z,97477.92
2019-02-21T13:57:47.034Z,97475.33
2019-02-21T14:00:19.045Z,97476.03
2019-02-21T14:02:49.969Z,97470.75
2019-02-21T14:05:20.436Z,97470.87
2019-02-21T14:07:50.920Z,97465.80
2019-02-21T14:10:21.344Z,97477.40
2019-02-21T14:12:51.646Z,97470.16
2019-02-21T14:15:24.248Z,97469.33
2019-02-21T14:17:54.654Z,97461.91
2019-02-21T14:20:25.109Z,97466.02
2019-02-21T14:22:55.555Z,97458.02
2019-02-21T14:25:28.204Z,97457.84
2019-02-21T14:27:58.192Z,97458.16
2019-02-21T14:30:28.494Z,97458.20
2019-02-21T14:32:58.903Z,97461.16
2019-02-21T14:35:29.381Z,97459.20
2019-02-21T14:37:59.783Z,97461.81
2019-02-21T14:40:30.142Z,97457.51
2019-02-21T14:43:00.506Z,97453.78
2019-02-21T14:45:30.982Z,97456.84
2019-02-21T14:48:01.428Z,97454.44
2019-02-21T14:50:31.760Z,97454.58
2019-02-21T14:53:02.148Z,97454.59
2019-02-21T14:55:32.528Z,97452.78
2019-02-21T14:58:02.915Z,97442.73
2019-02-21T15:00:33.247Z,97449.80
2019-02-21T15:03:03.653Z,97438.37
2019-02-21T15:05:34.199Z,97435.88
2019-02-21T15:08:04.621Z,97431.24
2019-02-21T15:10:35.078Z,97442.14
2019-02-21T15:13:05.563Z,97439.31
2019-02-21T15:15:37.773Z,97441.08
2019-02-21T15:18:11.096Z,97441.92
2019-02-21T15:20:40.359Z,97438.89
2019-02-21T15:23:10.826Z,97449.78
2019-02-21T15:25:41.279Z,97446.55
2019-02-21T15:28:11.975Z,97450.55
2019-02-21T15:30:42.354Z,97444.17
2019-02-21T15:33:12.917Z,97451.42
2019-02-21T15:35:43.236Z,97452.42
2019-02-21T15:38:19.843Z,97446.05
2019-02-21T15:40:45.848Z,97443.92
2019-02-21T15:43:16.190Z,97449.38
2019-02-21T15:45:46.551Z,97462.58
2019-02-21T15:48:16.911Z,97450.66
2019-02-21T15:50:47.314Z,97454.33
2019-02-21T15:53:17.818Z,97449.56
2019-02-21T15:55:48.402Z,97446.31
2019-02-21T15:58:18.837Z,97456.59
2019-02-21T16:00:49.242Z,97460.61
2019-02-21T16:03:19.664Z,97457.36
2019-02-21T16:05:50.047Z,97461.31
2019-02-21T16:08:20.575Z,97465.45
2019-02-21T16:10:51.021Z,97462.36
2019-02-21T16:13:22.215Z,97459.73
2019-02-21T16:15:52.875Z,97464.36
2019-02-21T16:18:23.289Z,97463.24
2019-02-21T16:20:53.850Z,97470.99
2019-02-21T16:23:25.771Z,97471.34
2019-02-21T16:25:56.173Z,97481.53
2019-02-21T16:28:26.661Z,97479.89
2019-02-21T16:30:57.101Z,97476.79
2019-02-21T16:33:27.566Z,97487.47
2019-02-21T16:35:57.968Z,97486.36
2019-02-21T16:38:28.424Z,97488.82
2019-02-21T16:40:59.056Z,97493.80
2019-02-21T16:43:29.488Z,97493.45
2019-02-21T16:46:07.401Z,97492.14
2019-02-21T16:48:31.907Z,97498.05
2019-02-21T16:51:02.393Z,97497.71
2019-02-21T16:53:32.805Z,97507.56
2019-02-21T16:56:03.141Z,97510.53
2019-02-21T16:58:34.450Z,97512.50
2019-02-21T17:01:04.849Z,97512.20
2019-02-21T17:03:35.260Z,97513.50
2019-02-21T17:06:05.983Z,97517.77
2019-02-21T17:08:36.329Z,97512.34
2019-02-21T17:11:06.809Z,97517.44
2019-02-21T17:13:37.206Z,97519.06
2019-02-21T17:16:08.179Z,97513.01
2019-02-21T17:18:38.867Z,97515.45
2019-02-21T17:21:09.422Z,97513.14
2019-02-21T17:23:40.684Z,97517.23
2019-02-21T17:26:11.471Z,97522.61
2019-02-21T17:28:42.201Z,97522.28
2019-02-21T17:31:13.118Z,97515.56
2019-02-21T17:33:43.509Z,97519.02
2019-02-21T17:36:14.227Z,97522.61
2019-02-21T17:38:45.427Z,97519.50
2019-02-21T17:41:16.482Z,97522.95
2019-02-21T17:43:48.016Z,97523.13
2019-02-21T17:46:18.809Z,97523.95
2019-02-21T17:48:49.721Z,97525.41
2019-02-21T17:51:20.279Z,97526.42
2019-02-21T17:53:52.660Z,97533.14
2019-02-21T17:56:23.647Z,97533.11
2019-02-21T17:58:54.547Z,97534.76
2019-02-21T18:01:25.382Z,97527.16
2019-02-21T18:03:56.231Z,97531.39
2019-02-21T18:06:30.016Z,97535.95
2019-02-21T18:09:02.202Z,97540.19
2019-02-21T18:11:32.789Z,97543.78
2019-02-21T18:14:04.178Z,97546.75
2019-02-21T18:16:34.809Z,97544.99
2019-02-21T18:19:05.447Z,97543.23
2019-02-21T18:21:35.972Z,97545.22
2019-02-21T18:24:06.799Z,97545.86
2019-02-21T18:26:37.365Z,97544.88
2019-02-21T18:29:07.733Z,97540.95
2019-02-21T18:31:38.168Z,97548.14
2019-02-21T18:34:08.619Z,97544.70
2019-02-21T18:36:39.055Z,97545.19
2019-02-21T18:39:09.838Z,97552.23
2019-02-21T18:41:40.288Z,97557.33
2019-02-21T18:44:10.934Z,97554.70
2019-02-21T18:46:41.379Z,97559.61
2019-02-21T18:49:11.851Z,97563.50
2019-02-21T18:51:42.330Z,97559.23
2019-02-21T18:54:12.626Z,97561.70
2019-02-21T18:56:43.032Z,97565.78
2019-02-21T18:59:13.464Z,97569.66
2019-02-21T19:01:43.937Z,97565.38
2019-02-21T19:04:14.392Z,97565.04
2019-02-21T19:06:44.881Z,97571.17
2019-02-21T19:09:15.354Z,97572.81
2019-02-21T19:11:45.922Z,97572.77
2019-02-21T19:14:16.292Z,97577.52
2019-02-21T19:16:46.731Z,97579.45
2019-02-21T19:19:17.203Z,97579.58
2019-02-21T19:21:47.662Z,97567.09
2019-02-21T19:24:18.055Z,97565.73
2019-02-21T19:26:48.617Z,97573.23
2019-02-21T19:29:19.020Z,97578.27
2019-02-21T19:31:49.671Z,97580.72
2019-02-21T19:34:20.138Z,97574.81
2019-02-21T19:36:50.943Z,97565.70
2019-02-21T19:39:21.301Z,97573.22
2019-02-21T19:41:51.767Z,97577.97
2019-02-21T19:44:22.098Z,97584.04
2019-02-21T19:46:52.564Z,97587.63
2019-02-21T19:49:23.005Z,97589.56
2019-02-21T19:51:53.461Z,97594.47
2019-02-21T19:54:24.110Z,97592.33
2019-02-21T19:56:54.739Z,97600.39
2019-02-21T19:59:25.443Z,97600.19
2019-02-21T20:01:56.075Z,97597.75
2019-02-21T20:04:26.880Z,97597.06
2019-02-21T20:06:59.425Z,97599.00
2019-02-21T20:09:30.302Z,97594.09
2019-02-21T20:12:02.077Z,97595.05
2019-02-21T20:14:32.532Z,97590.78
2019-02-21T20:17:02.868Z,97595.73
2019-02-21T20:19:33.334Z,97599.00
2019-02-21T20:22:03.838Z,97598.03
2019-02-21T20:24:34.187Z,97594.45
2019-02-21T20:27:04.651Z,97601.34
2019-02-21T20:29:35.030Z,97602.30
2019-02-21T20:32:05.365Z,97606.23
2019-02-21T20:34:35.763Z,97606.58
2019-02-21T20:37:06.054Z,97607.19
2019-02-21T20:39:36.746Z,97605.53
2019-02-21T20:42:07.195Z,97608.16
2019-02-21T20:44:37.815Z,97610.77
2019-02-21T20:47:08.344Z,97608.75
2019-02-21T20:49:38.746Z,97610.67
2019-02-21T20:52:09.233Z,97614.23
2019-02-21T20:54:39.569Z,97626.64
2019-02-21T20:57:09.890Z,97623.19
2019-02-21T20:59:40.497Z,97624.02
2019-02-21T21:02:11.185Z,97614.23
2019-02-21T21:04:41.635Z,97616.84
2019-02-21T21:07:11.969Z,97614.00
2019-02-21T21:09:42.406Z,97610.19
2019-02-21T21:12:12.882Z,97609.08
2019-02-21T21:14:43.337Z,97608.19
2019-02-21T21:17:13.922Z,97612.12
2019-02-21T21:19:45.442Z,97613.34
2019-02-21T21:22:16.022Z,97626.97
2019-02-21T21:24:46.508Z,97622.64
2019-02-21T21:27:17.185Z,97623.29
2019-02-21T21:29:47.681Z,97618.72
2019-02-21T21:32:18.473Z,97627.59
2019-02-21T21:34:49.015Z,97619.44
2019-02-21T21:37:19.731Z,97619.78
2019-02-21T21:39:50.426Z,97619.50
2019-02-21T21:42:21.138Z,97617.27
2019-02-21T21:44:51.776Z,97616.64
2019-02-21T21:47:23.852Z,97620.61
2019-02-21T21:49:55.351Z,97613.44
2019-02-21T21:52:26.217Z,97608.86
2019-02-21T21:54:56.822Z,97612.37
2019-02-21T21:57:27.552Z,97615.56
2019-02-21T21:59:57.978Z,97619.20
2019-02-21T22:02:28.567Z,97616.51
2019-02-21T22:04:59.228Z,97616.39
2019-02-21T22:07:29.685Z,97624.28
2019-02-21T22:10:00.598Z,97624.28
2019-02-21T22:12:31.257Z,97627.52
2019-02-21T22:15:01.814Z,97631.30
2019-02-21T22:17:33.458Z,97628.55
2019-02-21T22:20:04.160Z,97630.84
2019-02-21T22:22:34.751Z,97625.61
2019-02-21T22:25:05.993Z,97615.80
2019-02-21T22:27:36.453Z,97618.78
2019-02-21T22:30:08.075Z,97614.23
2019-02-21T22:32:38.853Z,97611.92
2019-02-21T22:35:09.599Z,97615.84
2019-02-21T22:37:43.683Z,97612.27
2019-02-21T22:40:15.143Z,97617.81
2019-02-21T22:42:45.793Z,97615.48
2019-02-21T22:45:16.386Z,97620.72
2019-02-21T22:47:46.770Z,97629.23
2019-02-21T22:50:17.658Z,97627.38
2019-02-21T22:52:48.164Z,97630.48
2019-02-21T22:55:19.332Z,97636.06
2019-02-21T22:57:50.853Z,97632.81
2019-02-21T23:01:10.313Z,97632.45
2019-02-21T23:04:28.242Z,97636.38
2019-02-21T23:08:22.655Z,97633.09
2019-02-21T23:10:53.378Z,97639.98
2019-02-21T23:13:24.003Z,97639.36
2019-02-21T23:15:54.561Z,97640.70
2019-02-21T23:18:25.037Z,97641.18
2019-02-21T23:20:56.595Z,97643.17
2019-02-21T23:23:27.061Z,97644.34
2019-02-21T23:25:57.545Z,97646.48
2019-02-21T23:28:27.915Z,97643.69
2019-02-21T23:30:58.405Z,97644.34
2019-02-21T23:33:29.848Z,97654.48
2019-02-21T23:36:00.355Z,97652.83
2019-02-21T23:38:30.818Z,97661.98
2019-02-21T23:41:01.272Z,97658.89
2019-02-21T23:43:31.713Z,97657.75
2019-02-21T23:46:02.110Z,97658.09
2019-02-21T23:48:32.466Z,97658.75
2019-02-21T23:51:02.949Z,97651.63
2019-02-21T23:53:33.402Z,97651.42
2019-02-21T23:56:03.834Z,97659.88
2019-02-21T23:58:34.282Z,97650.70
